Time;durP1;ratioP1;P1;durP2;ratioP2;P2;SDS_P1;SDS_P2;PMS_P1;PMS_P2;Temp;Humidity;BMP_temperature;BMP_pressure;BME280_temperature;BME280_humidity;BME280_pressure;Samples;Min_cycle;Max_cycle;Signal;HPM_P1;HPM_P2
2021/12/29 00:02:00;;;;;;;;;;;;;;;;;;5033452;28;19929;-87
2021/12/29 00:04:27;;;;;;;;;;;;;;;;;;5048343;28;20330;-86
2021/12/29 00:06:54;;;;;;;;;;;;;;;;;;5048016;28;19927;-87
2021/12/29 00:09:22;;;;;;;;;;;;;;;;;;5033029;28;19924;-88
2021/12/29 00:11:49;;;;;;;;;;;;;;;;;;5032792;28;19917;-90
2021/12/29 00:14:15;;;;;;;;;;;;;;;;;;5040171;28;19913;-88
2021/12/29 00:16:40;;;;;;;;;;;;;;;;;;5053584;28;19959;-89
2021/12/29 00:19:07;;;;;;;;;;;;;;;;;;5046015;28;20370;-90
2021/12/29 00:21:35;;;;;;;;;;;;;;;;;;5033674;28;19925;-89
2021/12/29 00:24:01;;;;;;;;;;;;;;;;;;5037815;28;19970;-89
2021/12/29 00:26:29;;;;;;;;;;;;;;;;;;5016225;28;19917;-89
2021/12/29 00:28:56;;;;;;;;;;;;;;;;;;5034043;28;19939;-89
2021/12/29 00:31:22;;;;;;;;;;;;;;;;;;5033645;28;19917;-88
2021/12/29 00:33:47;;;;;;;;;;;;;;;;;;5016240;28;20004;-89
2021/12/29 00:36:17;;;;;;;;;;;;;;;;;;5033882;28;19948;-89
2021/12/29 00:38:43;;;;;;;;;;;;;;;;;;5032866;28;19913;-88
2021/12/29 00:41:13;;;;;;;;;;;;;;;;;;5033474;28;19921;-87
2021/12/29 00:43:39;;;;;;;;;;;;;;;;;;5033549;28;19921;-88
2021/12/29 00:46:11;;;;;;;;;;;;;;;;;;5033296;28;20288;-88
2021/12/29 00:48:41;;;;;;;;;;;;;;;;;;5033788;28;20370;-88
2021/12/29 00:51:09;;;;;;;;;;;;;;;;;;5032582;28;19913;-87
2021/12/29 00:53:37;;;;;;;;;;;;;;;;;;5033436;28;19917;-89
2021/12/29 00:56:06;;;;;;;;;;;;;;;;;;5015944;28;20035;-88
2021/12/29 00:58:31;;;;;;;;;;;;;;;;;;5034228;28;19913;-89
2021/12/29 01:00:59;;;;;;;;;;;;;;;;;;5016182;28;19924;-89
2021/12/29 01:03:27;;;;;;;;;;;;;;;;;;5035375;28;19931;-91
2021/12/29 01:05:54;;;;;;;;;;;;;;;;;;5036680;28;19914;-89
2021/12/29 01:08:25;;;;;;;;;;;;;;;;;;5038139;28;20262;-91
2021/12/29 01:10:50;;;;;;;;;;;;;;;;;;5053568;28;20342;-88
2021/12/29 01:13:19;;;;;;;;;;;;;;;;;;5042294;28;19917;-88
2021/12/29 01:18:45;;;;;;;;;;;;;;;;;;5027523;28;20330;-88
2021/12/29 01:21:10;;;;;;;;;;;;;;;;;;5045499;28;19917;-89
2021/12/29 01:23:36;;;;;;;;;;;;;;;;;;5034837;28;19936;-89
2021/12/29 01:26:01;;;;;;;;;;;;;;;;;;5034629;28;19921;-90
2021/12/29 01:28:26;;;;;;;;;;;;;;;;;;5036559;28;19913;-88
2021/12/29 01:30:56;;;;;;;;;;;;;;;;;;5035836;28;19917;-90
2021/12/29 01:33:24;;;;;;;;;;;;;;;;;;5019442;28;19917;-89
2021/12/29 01:35:49;;;;;;;;;;;;;;;;;;5035511;28;19917;-90
2021/12/29 01:38:15;;;;;;;;;;;;;;;;;;5035847;28;19928;-90
2021/12/29 01:40:40;;;;;;;;;;;;;;;;;;5034939;28;20261;-90
2021/12/29 01:43:08;;;;;;;;;;;;;;;;;;5035641;28;19921;-90
2021/12/29 01:45:36;;;;;;;;;;;;;;;;;;5036181;28;19979;-89
2021/12/29 01:48:05;;;;;;;;;;;;;;;;;;5038331;28;19921;-90
2021/12/29 01:50:33;;;;;;;;;;;;;;;;;;5036178;28;19956;-89
2021/12/29 01:53:02;;;;;;;;;;;;;;;;;;5035456;28;19921;-89
2021/12/29 01:55:31;;;;;;;;;;;;;;;;;;5049307;28;19917;-89
2021/12/29 01:57:56;;;;;;;;;;;;;;;;;;5022078;28;19912;-89
2021/12/29 02:00:29;;;;;;;;;;;;;;;;;;5034894;28;20339;-89
2021/12/29 02:02:54;;;;;;;;;;;;;;;;;;5019137;28;19932;-88
2021/12/29 02:05:22;;;;;;;;;;;;;;;;;;5035170;28;19913;-88
2021/12/29 02:07:48;;;;;;;;;;;;;;;;;;5034740;28;19917;-88
2021/12/29 02:10:14;;;;;;;;;;;;;;;;;;5040506;28;19920;-89
2021/12/29 02:12:41;;;;;;;;;;;;;;;;;;5035857;28;20342;-89
2021/12/29 02:15:09;;;;;;;;;;;;;;;;;;5034869;28;19921;-90
2021/12/29 02:17:37;;;;;;;;;;;;;;;;;;5036095;28;19917;-90
2021/12/29 02:20:03;;;;;;;;;;;;;;;;;;5035550;28;19913;-89
2021/12/29 02:22:44;;;;;;;;;;;;;;;;;;5018831;28;20376;-90
2021/12/29 02:27:44;;;;;;;;;;;;;;;;;;5019889;28;19917;-90
2021/12/29 02:30:12;;;;;;;;;;;;;;;;;;5015775;28;19913;-89
2021/12/29 02:32:37;;;;;;;;;;;;;;;;;;5028490;28;20407;-89
2021/12/29 02:35:03;;;;;;;;;;;;;;;;;;4998973;28;20107;-89
2021/12/29 02:37:28;;;;;;;;;;;;;;;;;;5018149;28;19945;-88
2021/12/29 02:39:53;;;;;;;;;;;;;;;;;;5027799;28;19972;-89
2021/12/29 02:42:24;;;;;;;;;;;;;;;;;;5015059;28;20224;-88
2021/12/29 02:44:51;;;;;;;;;;;;;;;;;;4995817;28;20009;-88
2021/12/29 02:47:17;;;;;;;;;;;;;;;;;;4997627;28;20295;-90
2021/12/29 02:49:42;;;;;;;;;;;;;;;;;;4997868;28;19948;-93
2021/12/29 02:52:11;;;;;;;;;;;;;;;;;;4997537;28;20275;-92
2021/12/29 02:54:36;;;;;;;;;;;;;;;;;;5015097;28;20231;-92
2021/12/29 02:57:02;;;;;;;;;;;;;;;;;;4981352;28;20350;-92
2021/12/29 02:59:29;;;;;;;;;;;;;;;;;;5015175;28;19975;-92
2021/12/29 03:01:56;;;;;;;;;;;;;;;;;;5010421;28;20429;-93
2021/12/29 03:04:22;;;;;;;;;;;;;;;;;;5013929;28;19913;-92
2021/12/29 03:06:47;;;;;;;;;;;;;;;;;;4995735;28;19918;-92
2021/12/29 03:09:16;;;;;;;;;;;;;;;;;;4996543;28;19917;-92
2021/12/29 03:11:41;;;;;;;;;;;;;;;;;;4997149;28;19928;-92
2021/12/29 03:14:09;;;;;;;;;;;;;;;;;;5012243;28;19917;-91
2021/12/29 03:16:37;;;;;;;;;;;;;;;;;;4997459;28;19920;-90
2021/12/29 03:19:03;;;;;;;;;;;;;;;;;;5014299;28;19913;-90
2021/12/29 03:21:31;;;;;;;;;;;;;;;;;;5014423;28;20397;-90
2021/12/29 03:23:56;;;;;;;;;;;;;;;;;;5014519;28;19921;-89
2021/12/29 03:26:26;;;;;;;;;;;;;;;;;;4981497;28;19936;-89
2021/12/29 03:28:52;;;;;;;;;;;;;;;;;;5014956;28;20012;-90
2021/12/29 03:31:21;;;;;;;;;;;;;;;;;;5014631;28;19987;-89
2021/12/29 03:33:47;;;;;;;;;;;;;;;;;;5013667;28;19917;-89
2021/12/29 03:36:13;;;;;;;;;;;;;;;;;;5014073;28;19913;-89
2021/12/29 03:38:39;;;;;;;;;;;;;;;;;;5014194;28;19924;-88
2021/12/29 03:41:09;;;;;;;;;;;;;;;;;;5027060;28;20377;-90
2021/12/29 03:43:34;;;;;;;;;;;;;;;;;;5033976;28;20393;-91
2021/12/29 03:46:00;;;;;;;;;;;;;;;;;;5033962;28;19913;-89
2021/12/29 03:48:26;;;;;;;;;;;;;;;;;;5034604;28;19917;-91
2021/12/29 03:50:54;;;;;;;;;;;;;;;;;;5033059;28;19920;-91
2021/12/29 03:53:20;;;;;;;;;;;;;;;;;;5037568;28;20000;-91
2021/12/29 03:55:49;;;;;;;;;;;;;;;;;;5052787;28;19948;-86
2021/12/29 03:58:15;;;;;;;;;;;;;;;;;;5037213;28;20253;-87
2021/12/29 04:00:40;;;;;;;;;;;;;;;;;;5033825;28;19913;-87
2021/12/29 04:03:05;;;;;;;;;;;;;;;;;;5030427;28;20246;-87
2021/12/29 04:05:33;;;;;;;;;;;;;;;;;;5014169;28;19974;-86
2021/12/29 04:07:59;;;;;;;;;;;;;;;;;;5016237;28;19916;-88
2021/12/29 04:10:26;;;;;;;;;;;;;;;;;;5033035;28;19920;-87
2021/12/29 04:12:52;;;;;;;;;;;;;;;;;;5031350;28;19914;-87
2021/12/29 04:15:17;;;;;;;;;;;;;;;;;;5033790;28;19913;-87
2021/12/29 04:17:49;;;;;;;;;;;;;;;;;;5033085;28;19917;-87
2021/12/29 04:23:09;;;;;;;;;;;;;;;;;;5016577;28;19932;-87
2021/12/29 04:25:37;;;;;;;;;;;;;;;;;;5031350;28;19917;-87
2021/12/29 04:28:08;;;;;;;;;;;;;;;;;;5019251;28;19925;-87
2021/12/29 04:30:38;;;;;;;;;;;;;;;;;;5033846;28;19936;-86
2021/12/29 04:33:06;;;;;;;;;;;;;;;;;;5049556;28;19916;-85
2021/12/29 04:35:32;;;;;;;;;;;;;;;;;;5053562;28;20342;-87
2021/12/29 04:37:57;;;;;;;;;;;;;;;;;;5052811;28;19923;-87
2021/12/29 04:40:22;;;;;;;;;;;;;;;;;;5053438;28;20409;-87
2021/12/29 04:42:48;;;;;;;;;;;;;;;;;;5034894;28;20055;-87
2021/12/29 04:45:18;;;;;;;;;;;;;;;;;;5032311;28;19921;-87
2021/12/29 04:47:45;;;;;;;;;;;;;;;;;;5034010;28;20007;-88
2021/12/29 04:50:23;;;;;;;;;;;;;;;;;;5037372;28;19913;-87
2021/12/29 04:52:51;;;;;;;;;;;;;;;;;;5037513;28;19923;-89
2021/12/29 04:55:16;;;;;;;;;;;;;;;;;;5032637;28;19964;-88
2021/12/29 04:57:42;;;;;;;;;;;;;;;;;;5033230;28;20441;-88
2021/12/29 05:00:07;;;;;;;;;;;;;;;;;;5035889;28;20370;-87
2021/12/29 05:02:32;;;;;;;;;;;;;;;;;;5037691;28;19917;-87
2021/12/29 05:05:02;;;;;;;;;;;;;;;;;;5036064;28;19948;-87
2021/12/29 05:10:13;;;;;;;;;;;;;;;;;;5036598;28;19932;-89
2021/12/29 05:12:39;;;;;;;;;;;;;;;;;;5050949;28;19917;-91
2021/12/29 05:15:09;;;;;;;;;;;;;;;;;;5056765;28;19913;-89
2021/12/29 05:17:36;;;;;;;;;;;;;;;;;;5043083;28;19931;-88
2021/12/29 05:20:02;;;;;;;;;;;;;;;;;;5035768;28;20013;-89
2021/12/29 05:22:27;;;;;;;;;;;;;;;;;;5047802;28;19960;-88
2021/12/29 05:24:53;;;;;;;;;;;;;;;;;;5038807;28;19983;-88
2021/12/29 05:27:19;;;;;;;;;;;;;;;;;;5036384;28;19928;-88
2021/12/29 05:29:46;;;;;;;;;;;;;;;;;;5036744;28;19912;-90
2021/12/29 05:32:11;;;;;;;;;;;;;;;;;;5036969;28;19917;-88
2021/12/29 05:34:37;;;;;;;;;;;;;;;;;;5035703;28;19971;-87
2021/12/29 05:37:02;;;;;;;;;;;;;;;;;;5036392;28;19917;-87
2021/12/29 05:39:27;;;;;;;;;;;;;;;;;;5029383;28;19995;-87
2021/12/29 05:41:53;;;;;;;;;;;;;;;;;;5023850;28;20337;-87
2021/12/29 05:44:20;;;;;;;;;;;;;;;;;;5035562;28;19948;-87
2021/12/29 05:46:45;;;;;;;;;;;;;;;;;;5036758;28;19943;-88
2021/12/29 05:49:11;;;;;;;;;;;;;;;;;;5036535;28;20341;-87
2021/12/29 05:51:36;;;;;;;;;;;;;;;;;;5036519;28;20373;-85
2021/12/29 05:54:01;;;;;;;;;;;;;;;;;;5035993;28;19917;-86
2021/12/29 05:56:27;;;;;;;;;;;;;;;;;;5036306;28;20265;-86
2021/12/29 05:58:52;;;;;;;;;;;;;;;;;;5036116;28;19924;-86
2021/12/29 06:01:17;;;;;;;;;;;;;;;;;;5034907;28;20368;-87
2021/12/29 06:03:43;;;;;;;;;;;;;;;;;;5035676;28;20006;-86
2021/12/29 06:06:11;;;;;;;;;;;;;;;;;;5048387;28;19916;-85
2021/12/29 06:08:41;;;;;;;;;;;;;;;;;;5016050;28;19921;-86
2021/12/29 06:11:06;;;;;;;;;;;;;;;;;;5027777;28;19999;-86
2021/12/29 06:13:32;;;;;;;;;;;;;;;;;;5035157;28;19999;-86
2021/12/29 06:15:57;;;;;;;;;;;;;;;;;;5036135;28;19917;-86
2021/12/29 06:18:22;;;;;;;;;;;;;;;;;;5035715;28;20295;-86
2021/12/29 06:20:47;;;;;;;;;;;;;;;;;;5035400;28;20330;-86
2021/12/29 06:23:13;;;;;;;;;;;;;;;;;;5034486;28;19983;-87
2021/12/29 06:25:41;;;;;;;;;;;;;;;;;;5035768;28;20421;-86
2021/12/29 06:28:08;;;;;;;;;;;;;;;;;;5034673;28;19966;-86
2021/12/29 06:30:34;;;;;;;;;;;;;;;;;;5035724;28;19921;-86
2021/12/29 06:33:01;;;;;;;;;;;;;;;;;;5034494;28;19966;-85
2021/12/29 06:35:27;;;;;;;;;;;;;;;;;;5035237;28;20007;-86
2021/12/29 06:37:52;;;;;;;;;;;;;;;;;;5036064;28;19952;-86
2021/12/29 06:40:19;;;;;;;;;;;;;;;;;;5039778;28;19921;-86
2021/12/29 06:42:45;;;;;;;;;;;;;;;;;;5055332;28;19928;-89
2021/12/29 06:45:10;;;;;;;;;;;;;;;;;;5054813;28;19916;-89
2021/12/29 06:47:36;;;;;;;;;;;;;;;;;;5056015;28;19959;-89
2021/12/29 06:50:04;;;;;;;;;;;;;;;;;;5045002;28;19916;-90
2021/12/29 06:52:32;;;;;;;;;;;;;;;;;;5054478;28;19912;-88
2021/12/29 06:54:57;;;;;;;;;;;;;;;;;;5052936;28;19920;-89
2021/12/29 06:57:24;;;;;;;;;;;;;;;;;;5035493;28;19913;-88
2021/12/29 06:59:50;;;;;;;;;;;;;;;;;;5049119;28;19962;-90
2021/12/29 07:02:18;;;;;;;;;;;;;;;;;;5036867;28;19921;-89
2021/12/29 07:04:45;;;;;;;;;;;;;;;;;;5039545;28;19924;-89
2021/12/29 07:07:13;;;;;;;;;;;;;;;;;;5054889;28;20326;-90
2021/12/29 07:09:43;;;;;;;;;;;;;;;;;;5050250;28;20292;-89
2021/12/29 07:12:11;;;;;;;;;;;;;;;;;;5033815;28;19913;-89
2021/12/29 07:14:38;;;;;;;;;;;;;;;;;;5034069;28;20453;-90
2021/12/29 07:17:04;;;;;;;;;;;;;;;;;;5037921;28;19921;-89
2021/12/29 07:19:29;;;;;;;;;;;;;;;;;;5034873;28;20364;-89
2021/12/29 07:21:55;;;;;;;;;;;;;;;;;;5033878;28;19921;-88
2021/12/29 07:24:20;;;;;;;;;;;;;;;;;;5037968;28;19927;-89
2021/12/29 07:26:46;;;;;;;;;;;;;;;;;;5035024;28;20338;-88
2021/12/29 07:29:14;;;;;;;;;;;;;;;;;;5055002;28;19921;-87
2021/12/29 07:31:42;;;;;;;;;;;;;;;;;;5044154;28;20012;-87
2021/12/29 07:34:10;;;;;;;;;;;;;;;;;;5035065;28;19913;-88
2021/12/29 07:36:35;;;;;;;;;;;;;;;;;;5034803;28;19925;-88
2021/12/29 07:39:03;;;;;;;;;;;;;;;;;;5033447;28;19917;-88
2021/12/29 07:41:30;;;;;;;;;;;;;;;;;;5041006;28;20278;-88
2021/12/29 07:43:59;;;;;;;;;;;;;;;;;;5039909;28;19933;-88
2021/12/29 07:46:24;;;;;;;;;;;;;;;;;;5034967;28;19917;-89
2021/12/29 07:48:49;;;;;;;;;;;;;;;;;;5034534;28;20037;-89
2021/12/29 07:51:17;;;;;;;;;;;;;;;;;;5034837;28;19913;-92
2021/12/29 07:53:42;;;;;;;;;;;;;;;;;;5033469;28;19917;-87
2021/12/29 07:56:12;;;;;;;;;;;;;;;;;;5033685;28;19940;-88
2021/12/29 07:58:40;;;;;;;;;;;;;;;;;;5034329;28;19939;-87
2021/12/29 08:01:05;;;;;;;;;;;;;;;;;;5036944;28;20311;-85
2021/12/29 08:03:32;;;;;;;;;;;;;;;;;;5043462;28;20016;-88
2021/12/29 08:06:00;;;;;;;;;;;;;;;;;;5044873;28;19967;-88
2021/12/29 08:08:25;;;;;;;;;;;;;;;;;;5033249;28;20000;-88
2021/12/29 08:10:50;;;;;;;;;;;;;;;;;;5034071;28;20016;-88
2021/12/29 08:13:16;;;;;;;;;;;;;;;;;;5033594;28;19917;-86
2021/12/29 08:15:41;;;;;;;;;;;;;;;;;;5019240;28;19932;-85
2021/12/29 08:18:09;;;;;;;;;;;;;;;;;;5034195;28;19980;-86
2021/12/29 08:20:39;;;;;;;;;;;;;;;;;;5034166;28;19917;-86
2021/12/29 08:23:07;;;;;;;;;;;;;;;;;;5036303;28;19979;-87
2021/12/29 08:25:33;;;;;;;;;;;;;;;;;;5037106;28;19968;-89
2021/12/29 08:28:00;;;;;;;;;;;;;;;;;;5037564;28;19913;-89
2021/12/29 08:30:28;;;;;;;;;;;;;;;;;;5037740;28;19917;-89
2021/12/29 08:32:53;;;;;;;;;;;;;;;;;;5037865;28;19924;-88
2021/12/29 08:35:21;;;;;;;;;;;;;;;;;;5037717;28;19917;-88
2021/12/29 08:37:48;;;;;;;;;;;;;;;;;;5036777;28;19913;-88
2021/12/29 08:40:14;;;;;;;;;;;;;;;;;;5049423;28;19929;-88
2021/12/29 08:42:39;;;;;;;;;;;;;;;;;;5037785;28;19917;-89
2021/12/29 08:45:05;;;;;;;;;;;;;;;;;;5057937;28;19917;-89
2021/12/29 08:47:30;;;;;;;;;;;;;;;;;;5048443;28;19963;-88
2021/12/29 08:49:55;;;;;;;;;;;;;;;;;;5048219;28;19925;-89
2021/12/29 08:52:21;;;;;;;;;;;;;;;;;;5043875;28;19975;-89
2021/12/29 08:54:53;;;;;;;;;;;;;;;;;;5057550;28;19972;-88
2021/12/29 08:57:22;;;;;;;;;;;;;;;;;;5049833;28;19972;-88
2021/12/29 08:59:47;;;;;;;;;;;;;;;;;;5048275;28;20261;-83
2021/12/29 09:02:13;;;;;;;;;;;;;;;;;;5037255;28;19936;-91
2021/12/29 09:04:40;;;;;;;;;;;;;;;;;;5050474;28;19917;-89
2021/12/29 09:07:08;;;;;;;;;;;;;;;;;;5057069;28;19959;-89
2021/12/29 09:09:33;;;;;;;;;;;;;;;;;;5055364;28;19927;-88
2021/12/29 09:11:58;;;;;;;;;;;;;;;;;;5056224;28;20330;-89
2021/12/29 09:14:24;;;;;;;;;;;;;;;;;;5035804;28;20015;-88
2021/12/29 09:16:49;;;;;;;;;;;;;;;;;;5034126;28;20019;-88
2021/12/29 09:19:14;;;;;;;;;;;;;;;;;;5036624;28;19913;-88
2021/12/29 09:21:47;;;;;;;;;;;;;;;;;;5035964;28;19924;-90
2021/12/29 09:24:13;;;;;;;;;;;;;;;;;;5036155;28;19960;-88
2021/12/29 09:26:38;;;;;;;;;;;;;;;;;;5036969;28;19957;-90
2021/12/29 09:29:04;;;;;;;;;;;;;;;;;;5037753;28;19921;-89
2021/12/29 09:31:36;;;;;;;;;;;;;;;;;;5036270;28;19963;-89
2021/12/29 09:34:02;;;;;;;;;;;;;;;;;;5036161;28;19956;-88
2021/12/29 09:36:27;;;;;;;;;;;;;;;;;;5036392;28;20428;-89
2021/12/29 09:38:52;;;;;;;;;;;;;;;;;;5019721;28;20055;-88
2021/12/29 09:41:18;;;;;;;;;;;;;;;;;;5037637;28;19921;-88
2021/12/29 09:43:46;;;;;;;;;;;;;;;;;;5036192;28;19936;-89
2021/12/29 09:46:12;;;;;;;;;;;;;;;;;;5036757;28;19913;-87
2021/12/29 09:48:38;;;;;;;;;;;;;;;;;;5021759;28;19917;-88
2021/12/29 09:51:04;;;;;;;;;;;;;;;;;;5055629;28;19924;-88
2021/12/29 09:53:29;;;;;;;;;;;;;;;;;;5059179;28;19919;-90
2021/12/29 09:55:59;;;;;;;;;;;;;;;;;;5060717;28;19912;-89
2021/12/29 09:58:26;;;;;;;;;;;;;;;;;;5051713;28;19963;-88
2021/12/29 10:00:54;;;;;;;;;;;;;;;;;;5042215;28;19928;-89
2021/12/29 10:03:20;;;;;;;;;;;;;;;;;;5055028;28;19925;-89
2021/12/29 10:05:46;;;;;;;;;;;;;;;;;;5035258;28;20314;-89
2021/12/29 10:08:13;;;;;;;;;;;;;;;;;;5036175;28;19924;-89
2021/12/29 10:10:40;;;;;;;;;;;;;;;;;;5052999;28;19913;-88
2021/12/29 10:13:07;;;;;;;;;;;;;;;;;;5034955;28;19924;-90
2021/12/29 10:15:34;;;;;;;;;;;;;;;;;;5053724;28;19998;-89
2021/12/29 10:18:06;;;;;;;;;;;;;;;;;;5055790;28;19928;-90
2021/12/29 10:20:34;;;;;;;;;;;;;;;;;;5036252;28;20294;-88
2021/12/29 10:23:06;;;;;;;;;;;;;;;;;;5034851;28;19971;-89
2021/12/29 10:25:34;;;;;;;;;;;;;;;;;;5043686;28;20349;-89
2021/12/29 10:28:02;;;;;;;;;;;;;;;;;;5047816;28;20008;-87
2021/12/29 10:30:28;;;;;;;;;;;;;;;;;;5041704;28;20325;-91
2021/12/29 10:32:57;;;;;;;;;;;;;;;;;;5032485;28;19920;-90
2021/12/29 10:35:23;;;;;;;;;;;;;;;;;;5035326;28;19913;-89
2021/12/29 10:37:51;;;;;;;;;;;;;;;;;;5035209;28;19948;-89
2021/12/29 10:40:28;;;;;;;;;;;;;;;;;;5035483;28;19921;-89
2021/12/29 10:42:57;;;;;;;;;;;;;;;;;;5035513;28;19917;-90
2021/12/29 10:45:32;;;;;;;;;;;;;;;;;;5050378;28;19927;-87
2021/12/29 10:48:05;;;;;;;;;;;;;;;;;;5047859;28;19913;-88
2021/12/29 10:50:30;;;;;;;;;;;;;;;;;;5023672;28;19913;-88
2021/12/29 10:52:57;;;;;;;;;;;;;;;;;;5034665;28;19913;-90
2021/12/29 10:55:36;;;;;;;;;;;;;;;;;;5021132;28;19913;-87
2021/12/29 10:58:07;;;;;;;;;;;;;;;;;;5025664;28;19917;-87
2021/12/29 11:00:35;;;;;;;;;;;;;;;;;;5034583;28;19928;-87
2021/12/29 11:03:11;;;;;;;;;;;;;;;;;;5034387;28;20268;-87
2021/12/29 11:05:38;;;;;;;;;;;;;;;;;;5032068;28;19924;-86
2021/12/29 11:08:04;;;;;;;;;;;;;;;;;;5030583;28;19928;-86
2021/12/29 11:10:32;;;;;;;;;;;;;;;;;;5034581;28;20295;-85
2021/12/29 11:12:57;;;;;;;;;;;;;;;;;;5030209;28;19917;-86
2021/12/29 11:15:23;;;;;;;;;;;;;;;;;;5032423;28;20243;-83
2021/12/29 11:17:52;;;;;;;;;;;;;;;;;;5030947;28;19917;-85
2021/12/29 11:20:18;;;;;;;;;;;;;;;;;;5011269;28;19913;-86
2021/12/29 11:22:46;;;;;;;;;;;;;;;;;;5041984;28;20015;-82
2021/12/29 11:25:11;;;;;;;;;;;;;;;;;;5034278;28;19913;-85
2021/12/29 11:27:41;;;;;;;;;;;;;;;;;;5033419;28;19916;-86
2021/12/29 11:30:08;;;;;;;;;;;;;;;;;;5042673;28;19916;-86
2021/12/29 11:32:37;;;;;;;;;;;;;;;;;;5043597;28;20358;-86
2021/12/29 11:35:23;;;;;;;;;;;;;;;;;;5033121;28;19925;-85
2021/12/29 11:37:52;;;;;;;;;;;;;;;;;;5016954;28;20023;-84
2021/12/29 11:40:21;;;;;;;;;;;;;;;;;;5036950;28;19929;-84
2021/12/29 11:42:51;;;;;;;;;;;;;;;;;;5033664;28;21198;-85
2021/12/29 11:45:19;;;;;;;;;;;;;;;;;;5034027;28;19917;-85
2021/12/29 11:47:44;;;;;;;;;;;;;;;;;;5035707;28;20345;-83
2021/12/29 11:50:10;;;;;;;;;;;;;;;;;;5033732;28;19920;-85
2021/12/29 11:52:46;;;;;;;;;;;;;;;;;;5034165;28;20522;-85
2021/12/29 11:55:13;;;;;;;;;;;;;;;;;;5020126;28;20045;-84
2021/12/29 11:57:41;;;;;;;;;;;;;;;;;;5039673;28;20341;-85
2021/12/29 12:00:13;;;;;;;;;;;;;;;;;;5022172;28;19928;-86
2021/12/29 12:02:38;;;;;;;;;;;;;;;;;;5043879;28;20016;-86
2021/12/29 12:05:16;;;;;;;;;;;;;;;;;;5035913;28;19960;-86
2021/12/29 12:07:43;;;;;;;;;;;;;;;;;;5044184;28;19917;-88
2021/12/29 12:10:28;;;;;;;;;;;;;;;;;;5038759;28;20251;-84
2021/12/29 12:12:56;;;;;;;;;;;;;;;;;;5034228;28;20327;-86
2021/12/29 12:15:40;;;;;;;;;;;;;;;;;;5033642;28;19964;-87
2021/12/29 12:18:08;;;;;;;;;;;;;;;;;;5049587;28;20268;-89
2021/12/29 12:20:50;;;;;;;;;;;;;;;;;;5049756;28;19916;-85
2021/12/29 12:23:28;;;;;;;;;;;;;;;;;;5039719;28;19921;-83
2021/12/29 12:25:56;;;;;;;;;;;;;;;;;;5040972;28;20016;-83
2021/12/29 12:28:25;;;;;;;;;;;;;;;;;;5044410;28;19924;-83
2021/12/29 12:30:53;;;;;;;;;;;;;;;;;;5033313;28;19913;-83
2021/12/29 12:33:29;;;;;;;;;;;;;;;;;;5028774;28;19927;-83
2021/12/29 12:35:59;;;;;;;;;;;;;;;;;;5024594;28;19913;-83
2021/12/29 12:38:28;;;;;;;;;;;;;;;;;;5034048;28;19983;-85
2021/12/29 12:41:00;;;;;;;;;;;;;;;;;;5052948;28;20424;-79
2021/12/29 12:43:28;;;;;;;;;;;;;;;;;;5034042;28;21591;-80
2021/12/29 12:46:01;;;;;;;;;;;;;;;;;;5030037;28;20545;-79
2021/12/29 12:48:28;;;;;;;;;;;;;;;;;;5033175;28;20417;-79
2021/12/29 12:51:02;;;;;;;;;;;;;;;;;;5042906;28;19928;-80
2021/12/29 12:53:34;;;;;;;;;;;;;;;;;;5034999;28;20012;-81
2021/12/29 12:55:59;;;;;;;;;;;;;;;;;;5036020;28;19988;-81
2021/12/29 12:58:38;;;;;;;;;;;;;;;;;;5032786;28;20396;-77
2021/12/29 13:01:10;;;;;;;;;;;;;;;;;;5032612;28;19917;-84
2021/12/29 13:03:38;;;;;;;;;;;;;;;;;;5018576;28;19921;-83
2021/12/29 13:06:06;;;;;;;;;;;;;;;;;;5033779;28;19928;-84
2021/12/29 13:08:35;;;;;;;;;;;;;;;;;;5042593;28;20023;-83
2021/12/29 13:11:04;;;;;;;;;;;;;;;;;;5057904;28;19917;-84
2021/12/29 13:13:32;;;;;;;;;;;;;;;;;;5026020;28;20000;-83
2021/12/29 13:15:59;;;;;;;;;;;;;;;;;;5040089;28;19917;-83
2021/12/29 13:18:29;;;;;;;;;;;;;;;;;;5036785;28;19998;-84
2021/12/29 13:21:02;;;;;;;;;;;;;;;;;;5037405;28;20404;-85
2021/12/29 13:23:29;;;;;;;;;;;;;;;;;;5046398;28;19928;-87
2021/12/29 13:26:01;;;;;;;;;;;;;;;;;;5045249;28;20408;-85
2021/12/29 13:28:30;;;;;;;;;;;;;;;;;;5043991;28;19917;-84
2021/12/29 13:30:55;;;;;;;;;;;;;;;;;;5036044;28;19916;-84
2021/12/29 13:33:24;;;;;;;;;;;;;;;;;;5040147;28;19916;-85
2021/12/29 13:35:52;;;;;;;;;;;;;;;;;;5043363;28;19928;-85
2021/12/29 13:38:21;;;;;;;;;;;;;;;;;;5036526;28;20358;-84
2021/12/29 13:40:48;;;;;;;;;;;;;;;;;;5035551;28;20360;-86
2021/12/29 13:43:21;;;;;;;;;;;;;;;;;;5037726;28;20756;-86
2021/12/29 13:45:47;;;;;;;;;;;;;;;;;;5054270;28;19995;-85
2021/12/29 13:48:17;;;;;;;;;;;;;;;;;;5036050;28;19912;-87
2021/12/29 13:50:53;;;;;;;;;;;;;;;;;;5042063;28;20289;-85
2021/12/29 13:53:18;;;;;;;;;;;;;;;;;;5035737;28;20015;-85
2021/12/29 13:55:44;;;;;;;;;;;;;;;;;;5056290;28;19979;-84
2021/12/29 13:58:13;;;;;;;;;;;;;;;;;;5054216;28;19917;-85
2021/12/29 14:00:38;;;;;;;;;;;;;;;;;;5035841;28;19925;-86
2021/12/29 14:03:06;;;;;;;;;;;;;;;;;;5035503;28;19947;-88
2021/12/29 14:05:44;;;;;;;;;;;;;;;;;;5035768;28;19960;-86
2021/12/29 14:08:10;;;;;;;;;;;;;;;;;;5036954;28;19979;-88
2021/12/29 14:10:35;;;;;;;;;;;;;;;;;;5035492;28;19914;-87
2021/12/29 14:13:06;;;;;;;;;;;;;;;;;;5030362;28;19994;-87
2021/12/29 14:15:32;;;;;;;;;;;;;;;;;;5036645;28;19917;-88
2021/12/29 14:18:10;;;;;;;;;;;;;;;;;;5046257;28;20032;-86
2021/12/29 14:20:40;;;;;;;;;;;;;;;;;;5017588;28;20000;-86
2021/12/29 14:23:09;;;;;;;;;;;;;;;;;;5025376;28;19921;-85
2021/12/29 14:25:35;;;;;;;;;;;;;;;;;;5055705;28;19947;-85
2021/12/29 14:28:02;;;;;;;;;;;;;;;;;;5053298;28;19920;-85
2021/12/29 14:30:31;;;;;;;;;;;;;;;;;;5035640;28;20011;-84
2021/12/29 14:33:01;;;;;;;;;;;;;;;;;;5035668;28;20243;-85
2021/12/29 14:35:34;;;;;;;;;;;;;;;;;;5034726;28;20396;-84
2021/12/29 14:38:07;;;;;;;;;;;;;;;;;;5034571;28;19913;-85
2021/12/29 14:40:32;;;;;;;;;;;;;;;;;;5035209;28;19975;-85
2021/12/29 14:43:07;;;;;;;;;;;;;;;;;;5034432;28;19964;-85
2021/12/29 14:45:33;;;;;;;;;;;;;;;;;;5034292;28;19924;-85
2021/12/29 14:48:04;;;;;;;;;;;;;;;;;;5035398;28;19917;-85
2021/12/29 14:50:38;;;;;;;;;;;;;;;;;;5035195;28;19913;-85
2021/12/29 14:53:05;;;;;;;;;;;;;;;;;;5036024;28;19955;-85
2021/12/29 14:55:30;;;;;;;;;;;;;;;;;;5035760;28;19917;-84
2021/12/29 14:57:58;;;;;;;;;;;;;;;;;;5035399;28;20004;-85
2021/12/29 15:00:27;;;;;;;;;;;;;;;;;;5037629;28;19913;-85
2021/12/29 15:03:00;;;;;;;;;;;;;;;;;;5054954;28;20074;-85
2021/12/29 15:05:27;;;;;;;;;;;;;;;;;;5043716;28;19913;-87
2021/12/29 15:07:58;;;;;;;;;;;;;;;;;;5040218;28;19928;-88
2021/12/29 15:10:31;;;;;;;;;;;;;;;;;;5017483;28;19980;-86
2021/12/29 15:12:56;;;;;;;;;;;;;;;;;;5037657;28;19956;-87
2021/12/29 15:15:23;;;;;;;;;;;;;;;;;;5032011;28;20025;-87
2021/12/29 15:18:03;;;;;;;;;;;;;;;;;;5041442;28;20011;-88
2021/12/29 15:20:31;;;;;;;;;;;;;;;;;;5033717;28;19927;-88
2021/12/29 15:23:03;;;;;;;;;;;;;;;;;;5037055;28;20349;-89
2021/12/29 15:25:30;;;;;;;;;;;;;;;;;;5031823;28;19928;-87
2021/12/29 15:27:59;;;;;;;;;;;;;;;;;;5022922;28;19924;-88
2021/12/29 15:30:24;;;;;;;;;;;;;;;;;;5038327;28;19921;-87
2021/12/29 15:32:52;;;;;;;;;;;;;;;;;;5035926;28;20027;-86
2021/12/29 15:35:17;;;;;;;;;;;;;;;;;;5022780;28;19913;-85
2021/12/29 15:37:45;;;;;;;;;;;;;;;;;;5036960;28;20294;-85
2021/12/29 15:40:11;;;;;;;;;;;;;;;;;;5033511;28;19921;-89
2021/12/29 15:42:36;;;;;;;;;;;;;;;;;;5041599;28;19929;-88
2021/12/29 15:45:07;;;;;;;;;;;;;;;;;;5034991;28;19919;-88
2021/12/29 15:47:35;;;;;;;;;;;;;;;;;;5045182;28;19916;-87
2021/12/29 15:50:00;;;;;;;;;;;;;;;;;;5046223;28;19924;-87
2021/12/29 15:52:26;;;;;;;;;;;;;;;;;;5038183;28;19913;-87
2021/12/29 15:54:56;;;;;;;;;;;;;;;;;;5034008;28;19932;-86
2021/12/29 15:57:22;;;;;;;;;;;;;;;;;;5033858;28;19912;-86
2021/12/29 15:59:47;;;;;;;;;;;;;;;;;;5036816;28;20254;-86
2021/12/29 16:02:15;;;;;;;;;;;;;;;;;;5037589;28;20253;-87
2021/12/29 16:04:40;;;;;;;;;;;;;;;;;;5034137;28;19952;-86
2021/12/29 16:07:10;;;;;;;;;;;;;;;;;;5033310;28;19976;-87
2021/12/29 16:09:38;;;;;;;;;;;;;;;;;;5032897;28;19971;-87
2021/12/29 16:12:04;;;;;;;;;;;;;;;;;;5032874;28;20325;-86
2021/12/29 16:14:32;;;;;;;;;;;;;;;;;;5032710;28;19948;-87
2021/12/29 16:17:02;;;;;;;;;;;;;;;;;;5017522;28;20004;-86
2021/12/29 16:19:29;;;;;;;;;;;;;;;;;;5032674;28;20289;-87
2021/12/29 16:21:55;;;;;;;;;;;;;;;;;;5033157;28;19917;-88
2021/12/29 16:24:28;;;;;;;;;;;;;;;;;;5045638;28;20361;-88
2021/12/29 16:26:56;;;;;;;;;;;;;;;;;;5054405;28;20342;-88
2021/12/29 16:29:24;;;;;;;;;;;;;;;;;;5053883;28;19932;-86
2021/12/29 16:31:49;;;;;;;;;;;;;;;;;;5053998;28;19959;-88
2021/12/29 16:34:14;;;;;;;;;;;;;;;;;;5036599;28;19913;-87
2021/12/29 16:36:39;;;;;;;;;;;;;;;;;;5036830;28;19928;-87
2021/12/29 16:39:09;;;;;;;;;;;;;;;;;;5033420;28;19921;-89
2021/12/29 16:41:34;;;;;;;;;;;;;;;;;;5033657;28;19913;-88
2021/12/29 16:44:03;;;;;;;;;;;;;;;;;;5035305;28;19928;-87
2021/12/29 16:46:29;;;;;;;;;;;;;;;;;;5036205;28;19932;-87
2021/12/29 16:48:56;;;;;;;;;;;;;;;;;;5034254;28;19925;-89
2021/12/29 16:51:22;;;;;;;;;;;;;;;;;;5035741;28;19917;-89
2021/12/29 16:53:51;;;;;;;;;;;;;;;;;;5037175;28;20269;-91
2021/12/29 16:56:17;;;;;;;;;;;;;;;;;;5035247;28;19917;-91
2021/12/29 16:58:42;;;;;;;;;;;;;;;;;;5036811;28;20007;-89
2021/12/29 17:01:10;;;;;;;;;;;;;;;;;;5037794;28;20338;-89